Show newer

8時起きはブルジョワ

METAR通知頻度ちょっと下げるか
本垢のトゥ数超えそうだしw

あ、昨日飛行機貼り忘れたわw

桜を咲かせて散らせたら寒さ逆戻りとかもうね

RJOO 072200Z 06004KT CAVOK 11/07 Q1017 RMK A3004

とりあえずまん防期間中の切符は全部パージした
昨年からこの繰り返しだわ...

大阪コロナが800人超えたらおっぱいうpするわ

昨日のマストドンの活動は

トゥート : 20638(+25)
フォロー : 176(0)
フォロワー : 223(0)

でした。
donhaialert.herokuapp.com

8時起きはブルジョワ

いかん、そろそろ支度しないと

新幹線で函館まで行って
函館からHACで丘珠

新青森から函館北斗まで新幹線はいかんの?

長崎って何の肉食うの?

Show older
hikoukidon

個人運用サーバです。 Private server.